createdAt,value
2019-06-08T00:02:16.613Z,0.83
2019-06-08T00:04:46.900Z,0.97
2019-06-08T00:07:18.905Z,1.00
2019-06-08T00:09:49.210Z,1.10
2019-06-08T00:12:19.305Z,0.60
2019-06-08T00:14:49.581Z,0.67
2019-06-08T00:17:35.764Z,0.90
2019-06-08T00:19:51.625Z,1.10
2019-06-08T00:22:22.004Z,0.90
2019-06-08T00:24:52.104Z,1.03
2019-06-08T00:27:23.049Z,0.80
2019-06-08T00:29:54.545Z,0.73
2019-06-08T00:32:24.649Z,1.00
2019-06-08T00:34:55.094Z,0.80
2019-06-08T00:37:25.557Z,0.80
2019-06-08T00:39:55.834Z,1.37
2019-06-08T00:42:26.344Z,1.07
2019-06-08T00:44:56.669Z,0.87
2019-06-08T00:47:44.962Z,1.10
2019-06-08T00:49:58.909Z,0.83
2019-06-08T00:52:29.433Z,0.60
2019-06-08T00:54:59.674Z,0.87
2019-06-08T00:57:30.220Z,0.70
2019-06-08T01:00:09.682Z,0.73
2019-06-08T01:02:32.754Z,0.90
2019-06-08T01:05:03.304Z,0.80
2019-06-08T01:07:33.521Z,0.77
2019-06-08T01:10:04.365Z,0.73
2019-06-08T01:12:34.793Z,0.80
2019-06-08T01:21:10.674Z,0.90
2019-06-08T01:23:40.925Z,0.70
2019-06-08T01:26:12.845Z,1.77
2019-06-08T01:28:43.248Z,1.03
2019-06-08T01:31:13.465Z,0.93
2019-06-08T01:33:44.339Z,0.83
2019-06-08T01:36:14.550Z,0.83
2019-06-08T01:38:44.802Z,0.67
2019-06-08T01:41:15.429Z,0.88
2019-06-08T01:43:45.565Z,0.80
2019-06-08T01:46:15.717Z,0.80
2019-06-08T01:48:46.034Z,0.97
2019-06-08T01:51:16.141Z,0.80
2019-06-08T01:53:46.365Z,0.60
2019-06-08T01:56:19.080Z,1.00
2019-06-08T01:58:49.551Z,0.70
2019-06-08T02:01:19.681Z,0.50
2019-06-08T02:03:49.901Z,0.77
2019-06-08T02:06:20.063Z,1.00
2019-06-08T02:08:50.289Z,0.77
2019-06-08T02:11:20.522Z,0.67
2019-06-08T02:13:50.743Z,0.70
2019-06-08T02:16:20.962Z,0.83
2019-06-08T02:18:51.390Z,0.90
2019-06-08T02:21:26.664Z,0.87
2019-06-08T02:23:58.049Z,1.00
2019-06-08T02:26:29.150Z,1.03
2019-06-08T02:29:00.326Z,0.93
2019-06-08T02:31:31.323Z,0.97
2019-06-08T02:34:02.868Z,0.90
2019-06-08T02:36:35.000Z,0.80
2019-06-08T02:39:06.384Z,1.33
2019-06-08T02:41:37.620Z,0.80
2019-06-08T02:44:07.960Z,0.80
2019-06-08T02:46:40.472Z,0.80
2019-06-08T02:49:10.300Z,0.60
2019-06-08T02:51:41.124Z,1.00
2019-06-08T02:54:12.280Z,0.70
2019-06-08T02:56:42.808Z,0.70
2019-06-08T02:59:15.348Z,0.93
2019-06-08T03:01:46.993Z,1.00
2019-06-08T03:04:17.816Z,0.93
2019-06-08T03:06:48.395Z,0.77
2019-06-08T03:09:20.212Z,0.60
2019-06-08T03:11:51.271Z,0.70
2019-06-08T03:14:23.023Z,0.80
2019-06-08T03:16:53.471Z,0.80
2019-06-08T03:19:25.389Z,0.80
2019-06-08T03:21:55.556Z,1.00
2019-06-08T03:24:26.275Z,0.70
2019-06-08T03:26:56.541Z,1.03
2019-06-08T03:29:26.739Z,0.60
2019-06-08T03:31:57.739Z,0.67
2019-06-08T03:34:28.150Z,0.70
2019-06-08T03:36:58.563Z,0.90
2019-06-08T03:39:28.669Z,1.13
2019-06-08T03:41:58.834Z,0.97
2019-06-08T03:44:28.924Z,0.80
2019-06-08T03:46:59.237Z,0.90
2019-06-08T03:49:42.845Z,0.90
2019-06-08T03:52:01.791Z,0.90
2019-06-08T03:54:31.865Z,0.67
2019-06-08T03:57:02.012Z,0.73
2019-06-08T03:59:32.184Z,0.77
2019-06-08T04:02:02.485Z,0.80
2019-06-08T04:04:32.867Z,0.60
2019-06-08T04:07:03.356Z,0.80
2019-06-08T04:09:33.576Z,1.00
2019-06-08T04:12:04.062Z,0.98
2019-06-08T04:14:34.434Z,0.60
2019-06-08T04:17:04.700Z,0.70
2019-06-08T04:19:34.875Z,0.90
2019-06-08T04:22:05.055Z,0.70
2019-06-08T04:24:35.319Z,0.77
2019-06-08T04:27:05.459Z,0.90
2019-06-08T04:29:37.522Z,0.77
2019-06-08T04:32:07.535Z,0.90
2019-06-08T04:34:38.690Z,1.00
2019-06-08T04:37:08.990Z,0.70
2019-06-08T04:39:40.250Z,1.00
2019-06-08T04:42:10.566Z,1.10
2019-06-08T04:44:42.555Z,0.90
2019-06-08T04:47:13.483Z,1.13
2019-06-08T04:49:44.912Z,1.10
2019-06-08T04:52:16.215Z,1.03
2019-06-08T04:54:49.689Z,0.70
2019-06-08T04:57:20.352Z,0.90
2019-06-08T04:59:54.073Z,1.10
2019-06-08T05:02:24.603Z,1.13
2019-06-08T05:04:54.950Z,0.80
2019-06-08T05:07:25.595Z,1.07
2019-06-08T05:09:56.279Z,1.30
2019-06-08T05:12:26.764Z,0.90
2019-06-08T05:14:57.362Z,1.20
2019-06-08T05:17:28.921Z,1.60
2019-06-08T05:19:59.560Z,1.20
2019-06-08T05:22:30.096Z,1.10
2019-06-08T05:25:00.978Z,1.30
2019-06-08T05:27:31.862Z,1.27
2019-06-08T05:30:08.391Z,1.20
2019-06-08T05:32:35.708Z,1.15
2019-06-08T05:35:06.428Z,2.03
2019-06-08T05:37:37.035Z,1.63
2019-06-08T05:40:08.189Z,1.10
2019-06-08T05:42:40.625Z,1.40
2019-06-08T05:45:11.086Z,1.33
2019-06-08T05:47:43.889Z,1.27
2019-06-08T05:50:14.683Z,1.10
2019-06-08T05:52:45.893Z,1.23
2019-06-08T05:55:16.171Z,1.03
2019-06-08T05:57:46.543Z,1.27
2019-06-08T06:00:16.972Z,1.17
2019-06-08T06:02:47.130Z,1.63
2019-06-08T06:05:18.625Z,1.80
2019-06-08T06:07:49.159Z,1.67
2019-06-08T06:10:19.283Z,1.57
2019-06-08T06:12:49.523Z,2.23
2019-06-08T06:15:19.821Z,1.53
2019-06-08T06:17:51.412Z,1.30
2019-06-08T06:20:21.882Z,1.30
2019-06-08T06:22:52.701Z,1.10
2019-06-08T06:25:23.482Z,2.00
2019-06-08T06:27:53.703Z,1.40
2019-06-08T06:30:23.930Z,1.43
2019-06-08T06:32:54.111Z,1.80
2019-06-08T06:35:24.272Z,2.20
2019-06-08T06:37:54.684Z,1.97
2019-06-08T06:40:24.820Z,1.80
2019-06-08T06:42:55.225Z,1.67
2019-06-08T06:45:25.876Z,1.73
2019-06-08T06:47:56.166Z,1.93
2019-06-08T06:50:26.392Z,1.42
2019-06-08T06:57:56.022Z,1.50
2019-06-08T07:00:32.084Z,1.70
2019-06-08T07:05:32.817Z,1.50
2019-06-08T07:08:03.415Z,1.40
2019-06-08T07:15:41.189Z,1.60
2019-06-08T07:18:07.641Z,1.90
2019-06-08T07:20:38.576Z,1.80
2019-06-08T07:23:08.806Z,1.40
2019-06-08T07:25:38.990Z,1.87
2019-06-08T07:28:09.246Z,1.55
2019-06-08T07:30:39.571Z,1.47
2019-06-08T07:33:09.851Z,1.35
2019-06-08T07:35:40.086Z,1.60
2019-06-08T07:38:12.646Z,2.27
2019-06-08T07:40:43.226Z,1.90
2019-06-08T07:53:10.415Z,1.90
2019-06-08T07:55:40.986Z,1.60
2019-06-08T07:58:11.428Z,1.70
2019-06-08T08:03:11.176Z,1.50
2019-06-08T08:08:11.086Z,1.00
2019-06-08T08:10:41.649Z,0.80
2019-06-08T08:13:12.149Z,1.27
2019-06-08T08:15:42.545Z,1.03
2019-06-08T08:18:13.286Z,1.20
2019-06-08T08:20:43.577Z,1.03
2019-06-08T08:23:14.171Z,0.77
2019-06-08T08:25:44.725Z,0.60
2019-06-08T08:30:44.398Z,1.30
2019-06-08T08:33:14.761Z,1.00
2019-06-08T08:38:14.635Z,0.60
2019-06-08T08:40:44.945Z,0.80
2019-06-08T08:43:17.665Z,0.63
2019-06-08T08:45:47.717Z,0.70
2019-06-08T08:48:25.539Z,0.70
2019-06-08T08:50:51.213Z,0.70
2019-06-08T08:53:22.653Z,1.25
2019-06-08T08:55:52.876Z,1.05
2019-06-08T08:58:23.444Z,1.07
2019-06-08T09:00:54.214Z,0.88
2019-06-08T09:03:30.993Z,0.90
2019-06-08T09:16:03.456Z,0.80
2019-06-08T09:18:32.480Z,1.00
2019-06-08T09:21:04.706Z,0.80
2019-06-08T09:23:37.663Z,0.50
2019-06-08T09:26:11.902Z,1.10
2019-06-08T09:28:39.411Z,0.70
2019-06-08T09:31:12.842Z,0.85
2019-06-08T09:33:41.693Z,0.70
2019-06-08T09:36:12.033Z,0.80
2019-06-08T09:41:11.670Z,0.50
2019-06-08T09:43:42.299Z,0.80
2019-06-08T09:46:12.620Z,0.80
2019-06-08T09:48:44.691Z,0.70
2019-06-08T09:51:14.957Z,0.85
2019-06-08T09:53:47.622Z,1.00
2019-06-08T10:16:18.674Z,0.80
2019-06-08T10:21:21.148Z,0.60
2019-06-08T11:03:50.813Z,0.68
2019-06-08T11:06:21.026Z,0.70
2019-06-08T11:08:51.337Z,0.80
2019-06-08T11:11:21.879Z,0.70
2019-06-08T11:13:52.177Z,0.60
2019-06-08T11:16:22.801Z,0.60
2019-06-08T11:18:52.954Z,0.55
2019-06-08T11:21:23.146Z,0.80
2019-06-08T11:24:10.389Z,0.82
2019-06-08T11:26:25.514Z,0.60
2019-06-08T11:28:58.381Z,0.70
2019-06-08T11:34:00.360Z,0.50
2019-06-08T11:36:32.218Z,0.60
2019-06-08T11:39:02.604Z,0.60
2019-06-08T11:41:34.366Z,0.60
2019-06-08T11:44:05.525Z,0.80
2019-06-08T11:46:38.420Z,0.70
2019-06-08T11:49:14.358Z,0.60
2019-06-08T11:51:41.251Z,0.57
2019-06-08T11:54:27.255Z,0.50
2019-06-08T11:56:44.128Z,0.70
2019-06-08T11:59:14.617Z,0.95
2019-06-08T12:04:14.269Z,0.40
2019-06-08T12:06:44.578Z,0.50
2019-06-08T12:14:14.392Z,0.60
2019-06-08T12:24:14.426Z,0.50
2019-06-08T12:29:14.966Z,0.40
2019-06-08T12:36:48.072Z,0.70
2019-06-08T13:04:23.823Z,0.80
2019-06-08T13:11:52.206Z,1.00
2019-06-08T13:41:53.484Z,1.30
2019-06-08T13:59:31.100Z,0.90
2019-06-08T14:02:01.781Z,0.70
2019-06-08T14:12:01.816Z,0.65
2019-06-08T14:22:02.571Z,1.00
2019-06-08T14:29:33.088Z,1.00
2019-06-08T14:32:03.611Z,1.27
2019-06-08T14:54:51.169Z,0.75
2019-06-08T15:07:23.314Z,0.87
2019-06-08T15:09:52.748Z,0.80
2019-06-08T15:12:23.522Z,0.90
2019-06-08T15:14:55.189Z,0.70
2019-06-08T15:17:26.495Z,0.77
2019-06-08T15:19:58.564Z,0.90
2019-06-08T15:22:30.561Z,0.90
2019-06-08T15:25:01.069Z,0.70
2019-06-08T15:27:34.073Z,0.90
2019-06-08T15:30:08.398Z,0.83
2019-06-08T15:32:38.846Z,0.87
2019-06-08T15:35:09.353Z,1.23
2019-06-08T15:37:40.914Z,0.80
2019-06-08T15:40:12.482Z,0.80
2019-06-08T15:42:42.867Z,0.87
2019-06-08T15:45:13.138Z,1.10
2019-06-08T15:47:43.353Z,0.70
2019-06-08T15:50:13.641Z,0.80
2019-06-08T15:52:43.891Z,0.83
2019-06-08T15:55:15.095Z,0.80
2019-06-08T15:57:48.076Z,0.97
2019-06-08T16:00:19.956Z,0.80
2019-06-08T16:02:50.514Z,0.63
2019-06-08T16:05:20.955Z,0.60
2019-06-08T16:07:51.737Z,0.83
2019-06-08T16:10:23.999Z,0.97
2019-06-08T16:12:54.353Z,1.53
2019-06-08T16:15:24.929Z,0.90
2019-06-08T16:17:55.302Z,0.70
2019-06-08T16:20:25.633Z,0.60
2019-06-08T16:22:55.907Z,0.70
2019-06-08T16:25:27.532Z,0.60
2019-06-08T16:28:00.063Z,0.90
2019-06-08T16:30:31.022Z,0.70
2019-06-08T16:33:01.572Z,0.90
2019-06-08T16:35:31.883Z,0.95
2019-06-08T16:38:02.219Z,0.67
2019-06-08T16:40:34.284Z,1.10
2019-06-08T16:43:04.993Z,0.60
2019-06-08T16:45:35.547Z,0.60
2019-06-08T16:48:06.096Z,0.50
2019-06-08T16:50:36.569Z,0.70
2019-06-08T16:53:07.055Z,0.90
2019-06-08T16:55:38.474Z,0.90
2019-06-08T16:58:08.744Z,1.27
2019-06-08T17:00:42.099Z,0.80
2019-06-08T17:03:12.668Z,0.70
2019-06-08T17:05:43.076Z,0.93
2019-06-08T17:08:13.276Z,1.10
2019-06-08T17:10:43.469Z,0.80
2019-06-08T17:13:13.705Z,0.70
2019-06-08T17:15:44.027Z,0.83
2019-06-08T17:18:14.365Z,1.10
2019-06-08T17:20:46.535Z,1.10
2019-06-08T17:23:16.848Z,0.97
2019-06-08T17:25:47.362Z,0.70
2019-06-08T17:28:17.757Z,0.70
2019-06-08T17:30:48.258Z,1.10
2019-06-08T17:33:18.415Z,0.70
2019-06-08T17:35:48.956Z,0.73
2019-06-08T17:38:21.083Z,1.00
2019-06-08T17:40:51.621Z,1.13
2019-06-08T17:43:25.323Z,0.87
2019-06-08T17:45:56.060Z,0.77
2019-06-08T17:48:26.733Z,0.80
2019-06-08T17:50:57.464Z,0.77
2019-06-08T17:53:28.166Z,0.80
2019-06-08T17:55:58.879Z,0.77
2019-06-08T17:58:33.041Z,0.77
2019-06-08T18:01:04.188Z,1.00
2019-06-08T18:03:41.053Z,1.13
2019-06-08T18:06:11.494Z,1.70
2019-06-08T18:08:44.032Z,2.30
2019-06-08T18:11:17.368Z,6.93
2019-06-08T18:13:49.365Z,24.73
2019-06-08T18:16:29.377Z,11.15
2019-06-08T18:18:59.856Z,15.90
2019-06-08T18:21:32.650Z,9.53
2019-06-08T18:24:04.966Z,2.30
2019-06-08T18:26:38.380Z,1.50
2019-06-08T18:29:08.297Z,3.47
2019-06-08T18:31:40.233Z,2.57
2019-06-08T18:34:10.899Z,1.17
2019-06-08T18:36:43.293Z,1.23
2019-06-08T18:39:14.373Z,1.40
2019-06-08T18:41:48.242Z,1.40
2019-06-08T18:44:19.143Z,1.50
2019-06-08T18:46:50.281Z,2.37
2019-06-08T18:49:20.959Z,1.93
2019-06-08T18:51:53.693Z,1.70
2019-06-08T18:54:27.607Z,1.30
2019-06-08T18:56:57.369Z,1.80
2019-06-08T18:59:28.916Z,1.73
2019-06-08T19:02:00.640Z,1.63
2019-06-08T19:04:31.708Z,1.13
2019-06-08T19:07:03.606Z,2.13
2019-06-08T19:09:38.790Z,18.47
2019-06-08T19:12:07.930Z,13.70
2019-06-08T19:14:39.268Z,3.30
2019-06-08T19:17:11.495Z,1.90
2019-06-08T19:19:47.601Z,2.40
2019-06-08T19:29:51.656Z,2.90
2019-06-08T19:32:23.283Z,2.00
2019-06-08T19:34:54.962Z,2.23
2019-06-08T19:37:28.729Z,2.13
2019-06-08T19:39:59.043Z,2.70
2019-06-08T19:42:39.518Z,1.37
2019-06-08T19:45:05.725Z,2.10
2019-06-08T19:47:36.266Z,2.23
2019-06-08T19:50:07.893Z,2.40
2019-06-08T19:52:43.457Z,2.57
2019-06-08T19:55:11.792Z,3.00
2019-06-08T19:57:43.362Z,2.20
2019-06-08T20:00:18.063Z,2.63
2019-06-08T20:02:53.382Z,2.75
2019-06-08T20:05:23.413Z,2.30
2019-06-08T20:07:54.279Z,2.43
2019-06-08T20:10:28.029Z,2.23
2019-06-08T20:13:01.260Z,2.20
2019-06-08T20:15:33.176Z,2.60
2019-06-08T20:18:05.779Z,1.97
2019-06-08T20:20:38.194Z,2.47
2019-06-08T20:23:11.897Z,2.73
2019-06-08T20:25:45.224Z,2.37
2019-06-08T20:28:17.311Z,2.13
2019-06-08T20:30:50.565Z,2.13
2019-06-08T20:33:22.758Z,1.70
2019-06-08T20:35:54.612Z,1.90
2019-06-08T20:38:37.761Z,1.60
2019-06-08T20:41:00.794Z,2.50
2019-06-08T20:43:32.477Z,2.20
2019-06-08T20:46:03.575Z,2.13
2019-06-08T20:48:34.147Z,2.23
2019-06-08T20:51:07.890Z,2.02
2019-06-08T20:53:38.740Z,2.07
2019-06-08T20:56:10.548Z,2.00
2019-06-08T20:58:43.189Z,1.80
2019-06-08T21:01:15.104Z,1.72
2019-06-08T21:03:48.558Z,1.47
2019-06-08T21:06:21.347Z,1.43
2019-06-08T21:08:54.737Z,1.60
2019-06-08T21:11:30.041Z,1.90
2019-06-08T21:14:01.689Z,1.90
2019-06-08T21:16:33.630Z,1.80
2019-06-08T21:19:07.268Z,1.90
2019-06-08T21:21:38.717Z,1.70
2019-06-08T21:24:09.825Z,1.97
2019-06-08T21:26:40.683Z,2.03
2019-06-08T21:29:11.143Z,2.63
2019-06-08T21:31:42.132Z,2.53
2019-06-08T21:34:12.387Z,2.00
2019-06-08T21:36:42.954Z,2.40
2019-06-08T21:39:13.814Z,2.60
2019-06-08T21:41:44.057Z,2.83
2019-06-08T21:44:22.706Z,1.93
2019-06-08T21:46:51.404Z,2.60
2019-06-08T21:49:21.169Z,2.17
2019-06-08T21:51:52.999Z,2.20
2019-06-08T21:54:27.042Z,2.27
2019-06-08T21:56:59.329Z,2.95
2019-06-08T21:59:28.688Z,2.10
2019-06-08T22:02:02.310Z,2.60
2019-06-08T22:04:31.270Z,2.63
2019-06-08T22:07:03.252Z,2.87
2019-06-08T22:09:34.595Z,2.93
2019-06-08T22:12:06.995Z,2.70
2019-06-08T22:14:37.817Z,2.20
2019-06-08T22:17:10.577Z,3.30
2019-06-08T22:19:44.825Z,2.60
2019-06-08T22:22:15.125Z,2.97
2019-06-08T22:24:47.355Z,2.97
2019-06-08T22:27:17.686Z,2.50
2019-06-08T22:29:48.441Z,3.83
2019-06-08T22:32:18.866Z,2.97
2019-06-08T22:34:49.061Z,3.43
2019-06-08T22:37:20.024Z,3.23
2019-06-08T22:39:51.125Z,2.83
2019-06-08T22:42:22.468Z,3.30
2019-06-08T22:44:54.216Z,3.42
2019-06-08T22:47:27.949Z,3.23
2019-06-08T22:50:00.845Z,2.93
2019-06-08T22:52:32.039Z,3.00
2019-06-08T22:55:06.939Z,3.20
2019-06-08T22:57:37.824Z,2.77
2019-06-08T23:00:16.604Z,3.13
2019-06-08T23:02:42.693Z,3.60
2019-06-08T23:05:13.729Z,3.17
2019-06-08T23:07:44.105Z,2.80
2019-06-08T23:10:14.568Z,2.77
2019-06-08T23:12:47.202Z,3.03
2019-06-08T23:15:18.367Z,2.13
2019-06-08T23:17:48.651Z,2.60
2019-06-08T23:20:18.904Z,2.90
2019-06-08T23:22:49.056Z,2.80
2019-06-08T23:25:19.433Z,2.90
2019-06-08T23:27:49.622Z,2.73
2019-06-08T23:30:20.018Z,3.80
2019-06-08T23:32:50.204Z,3.07
2019-06-08T23:35:20.365Z,2.30
2019-06-08T23:37:50.648Z,2.53
2019-06-08T23:40:24.308Z,3.03
2019-06-08T23:42:54.661Z,2.40
2019-06-08T23:45:27.167Z,2.70
2019-06-08T23:47:59.885Z,3.70
2019-06-08T23:50:29.205Z,3.75
2019-06-08T23:53:00.617Z,2.20
2019-06-08T23:55:31.057Z,2.40
2019-06-08T23:58:02.923Z,2.67
